Time;durP1;ratioP1;P1;durP2;ratioP2;P2;SDS_P1;SDS_P2;PMS_P1;PMS_P2;Temp;Humidity;BMP_temperature;BMP_pressure;BME280_temperature;BME280_humidity;BME280_pressure;Samples;Min_cycle;Max_cycle;Signal;HPM_P1;HPM_P2
2022/05/14 00:00:25;;;;;;;3.13;0.45;;;;;;;20.97;35.48;102041.75;16142632;19;130519;-46
2022/05/14 00:05:48;;;;;;;6.50;0.80;;;;;;;20.95;35.63;102032.78;16138394;19;129409;-44
2022/05/14 00:16:51;;;;;;;2.72;0.45;;;;;;;20.93;35.59;102038.59;16136566;19;131339;-43
2022/05/14 00:22:12;;;;;;;0.68;0.40;;;;;;;20.90;35.85;102030.69;16138073;19;130159;-45
2022/05/14 00:27:40;;;;;;;3.92;0.30;;;;;;;20.93;35.23;102030.25;16134882;19;129890;-47
2022/05/14 00:33:03;;;;;;;4.05;0.47;;;;;;;20.89;35.49;102023.44;16135164;19;129671;-46
2022/05/14 00:38:25;;;;;;;1.02;0.30;;;;;;;20.89;35.43;102023.44;16137792;19;129972;-42
2022/05/14 00:43:56;;;;;;;1.67;0.38;;;;;;;20.89;35.53;102015.09;16138301;19;130372;-47
2022/05/14 00:49:21;;;;;;;2.33;0.30;;;;;;;20.86;35.92;102024.75;16135989;19;130735;-44
2022/05/14 00:55:07;;;;;;;1.55;0.40;;;;;;;20.86;35.87;102019.22;16137626;19;130618;-46
2022/05/14 01:00:30;;;;;;;3.72;0.70;;;;;;;20.84;35.94;102024.16;16133799;19;130115;-44
2022/05/14 01:05:53;;;;;;;2.83;0.35;;;;;;;20.83;35.52;102027.19;16134487;19;132446;-46
2022/05/14 01:11:16;;;;;;;0.60;0.20;;;;;;;20.83;35.67;102030.78;16136108;19;129747;-48
2022/05/14 01:16:38;;;;;;;1.50;0.30;;;;;;;20.83;35.75;102025.22;16141144;19;129585;-46
2022/05/14 01:22:02;;;;;;;1.10;0.30;;;;;;;20.81;35.61;102030.16;16135841;19;131158;-43
2022/05/14 01:27:25;;;;;;;1.60;0.40;;;;;;;20.81;35.63;102026.56;16134895;19;130088;-47
2022/05/14 01:33:04;;;;;;;0.85;0.25;;;;;;;20.80;35.78;102031.25;16130173;19;130630;-43
2022/05/14 01:38:26;;;;;;;2.00;0.30;;;;;;;20.78;35.73;102033.44;16133765;19;130379;-48
2022/05/14 01:43:49;;;;;;;2.67;0.50;;;;;;;20.78;35.89;102036.22;16131163;19;130022;-44
2022/05/14 01:49:11;;;;;;;1.83;0.38;;;;;;;20.77;35.83;102026.19;16132383;19;130435;-46
2022/05/14 01:54:32;;;;;;;0.40;0.25;;;;;;;20.76;35.92;102024.47;16131333;19;129693;-44
2022/05/14 01:59:54;;;;;;;1.10;0.25;;;;;;;20.75;36.00;102025.53;16129747;19;130931;-43
2022/05/14 02:05:17;;;;;;;1.85;0.47;;;;;;;20.74;35.51;102032.16;16133037;19;130419;-44
2022/05/14 02:10:39;;;;;;;1.02;0.20;;;;;;;20.72;35.80;102029.63;16129338;19;130441;-43
2022/05/14 02:16:01;;;;;;;2.92;0.40;;;;;;;20.73;35.74;102024.91;16128858;19;130688;-43
2022/05/14 02:21:28;;;;;;;1.70;0.20;;;;;;;20.71;36.08;102024.28;16130618;19;129593;-44
2022/05/14 02:26:50;;;;;;;0.82;0.20;;;;;;;20.71;35.97;102035.41;16131437;19;128975;-48
2022/05/14 02:32:11;;;;;;;0.70;0.20;;;;;;;20.69;35.98;102030.09;16126607;19;131006;-45
2022/05/14 02:37:34;;;;;;;1.02;0.28;;;;;;;20.68;35.87;102033.09;16132780;19;130233;-43
2022/05/14 02:42:56;;;;;;;2.00;0.32;;;;;;;20.67;36.03;102036.97;16130205;19;130385;-47
2022/05/14 02:48:18;;;;;;;1.40;0.28;;;;;;;20.66;35.58;102030.56;16131198;19;130797;-47
2022/05/14 02:53:40;;;;;;;0.88;0.40;;;;;;;20.65;35.75;102039.16;16123112;19;130381;-42
2022/05/14 02:59:07;;;;;;;2.03;0.30;;;;;;;20.64;35.64;102038.28;16128425;19;131035;-44
2022/05/14 03:04:31;;;;;;;0.88;0.20;;;;;;;20.65;35.48;102039.16;16129702;19;130125;-42
2022/05/14 03:09:53;;;;;;;2.22;0.40;;;;;;;20.62;35.78;102029.31;16126303;19;131064;-46
2022/05/14 03:15:14;;;;;;;0.57;0.20;;;;;;;20.62;35.62;102039.59;16125270;19;130056;-44
2022/05/14 03:20:37;;;;;;;0.80;0.20;;;;;;;20.60;35.79;102040.69;16127560;19;129947;-42
2022/05/14 03:25:59;;;;;;;0.55;0.10;;;;;;;20.60;35.75;102032.34;16127738;19;130231;-43
2022/05/14 03:31:21;;;;;;;1.63;0.35;;;;;;;20.58;35.59;102037.28;16128439;19;129586;-46
2022/05/14 03:36:42;;;;;;;1.02;0.32;;;;;;;20.57;35.81;102032.78;16145798;19;129964;-44
2022/05/14 03:42:04;;;;;;;0.45;0.20;;;;;;;20.56;36.07;102036.66;16138129;19;130530;-49
2022/05/14 03:47:26;;;;;;;0.38;0.20;;;;;;;20.56;35.67;102033.88;16142990;19;130675;-49
2022/05/14 03:52:48;;;;;;;1.52;0.20;;;;;;;20.55;35.83;102031.34;16138074;19;129547;-43
2022/05/14 03:58:10;;;;;;;0.35;0.20;;;;;;;20.54;35.67;102026.84;16139974;19;130524;-43
2022/05/14 04:03:34;;;;;;;0.73;0.15;;;;;;;20.53;36.03;102030.72;16140936;19;129723;-44
2022/05/14 04:08:56;;;;;;;0.70;0.20;;;;;;;20.52;35.72;102035.44;16142838;19;129928;-47
2022/05/14 04:14:18;;;;;;;0.32;0.10;;;;;;;20.51;35.74;102028.19;16133423;19;130202;-45
2022/05/14 04:19:40;;;;;;;1.05;0.20;;;;;;;20.51;35.72;102033.75;16136963;19;130639;-43
2022/05/14 04:25:01;;;;;;;0.63;0.17;;;;;;;20.50;36.10;102037.59;16140121;19;130364;-44
2022/05/14 04:30:23;;;;;;;0.40;0.10;;;;;;;20.49;36.08;102030.34;16138925;19;130216;-44
2022/05/14 04:35:45;;;;;;;0.85;0.30;;;;;;;20.49;36.05;102035.06;16139049;19;130754;-44
2022/05/14 04:41:08;;;;;;;1.48;0.15;;;;;;;20.47;36.06;102043.63;16136970;19;129490;-46
2022/05/14 04:46:30;;;;;;;0.93;0.30;;;;;;;20.47;35.72;102049.19;16137016;19;128952;-44
2022/05/14 04:51:51;;;;;;;1.88;0.30;;;;;;;20.46;35.90;102041.91;16135672;19;130070;-43
2022/05/14 04:57:13;;;;;;;0.88;0.15;;;;;;;20.45;35.83;102049.41;16137998;19;130261;-43
2022/05/14 05:08:15;;;;;;;0.88;0.20;;;;;;;20.45;36.03;102056.91;16137962;19;129844;-48
2022/05/14 05:13:37;;;;;;;0.50;0.20;;;;;;;20.46;35.83;102066.94;16130594;19;130598;-42
2022/05/14 05:18:59;;;;;;;0.20;0.15;;;;;;;20.45;35.64;102068.00;16129858;19;130363;-47
2022/05/14 05:24:22;;;;;;;0.43;0.20;;;;;;;20.45;35.80;102073.56;16135075;19;130490;-44
2022/05/14 05:29:43;;;;;;;0.47;0.10;;;;;;;20.45;35.63;102073.56;16134782;19;130689;-48
2022/05/14 05:35:05;;;;;;;1.05;0.68;;;;;;;20.45;35.70;102070.78;16136376;19;130374;-44
2022/05/14 05:40:27;;;;;;;0.40;0.20;;;;;;;20.44;35.78;102067.19;16134974;19;130297;-46
2022/05/14 05:45:50;;;;;;;0.65;0.20;;;;;;;20.44;35.59;102083.84;16130637;19;130964;-45
2022/05/14 05:51:12;;;;;;;1.30;0.30;;;;;;;20.44;35.81;102077.44;16132236;19;130282;-46
2022/05/14 06:02:13;;;;;;;0.50;0.20;;;;;;;20.43;35.58;102076.59;16134112;19;129569;-44
2022/05/14 06:07:36;;;;;;;0.80;0.20;;;;;;;20.43;35.74;102086.88;16133173;19;131159;-47
2022/05/14 06:12:58;;;;;;;1.50;0.32;;;;;;;20.42;35.71;102074.88;16128387;19;130258;-47
2022/05/14 06:18:20;;;;;;;0.70;0.20;;;;;;;20.42;35.47;102077.66;16127492;19;129870;-46
2022/05/14 06:23:42;;;;;;;1.75;0.30;;;;;;;20.42;35.52;102087.94;16134753;19;129676;-44
2022/05/14 06:29:04;;;;;;;3.22;0.80;;;;;;;20.50;35.28;102078.44;16130061;19;130442;-48
2022/05/14 06:34:26;;;;;;;4.95;0.77;;;;;;;20.55;34.80;102087.81;16128624;19;129180;-47
2022/05/14 06:39:48;;;;;;;10.82;2.38;;;;;;;20.66;34.35;102091.72;16128363;19;129720;-43
2022/05/14 06:45:10;;;;;;;8.75;1.70;;;;;;;20.76;34.20;102096.78;16129979;19;130977;-48
2022/05/14 06:50:39;;;;;;;7.35;1.40;;;;;;;20.87;34.37;102103.47;16129097;19;130272;-46
2022/05/14 06:56:02;;;;;;;9.40;2.00;;;;;;;20.95;33.84;102097.63;16126650;19;130618;-49
2022/05/14 07:01:24;;;;;;;11.95;2.20;;;;;;;21.05;33.76;102113.75;16129853;19;130506;-47
2022/05/14 07:06:46;;;;;;;6.78;1.50;;;;;;;21.11;33.95;102093.34;16134128;19;130522;-46
2022/05/14 07:12:09;;;;;;;8.23;1.50;;;;;;;21.19;34.06;102101.34;16142678;19;129769;-44
2022/05/14 07:17:32;;;;;;;8.68;1.65;;;;;;;21.27;33.90;102102.97;16140903;19;129658;-49
2022/05/14 07:22:53;;;;;;;6.57;1.50;;;;;;;21.31;34.04;102103.34;16144739;19;129872;-46
2022/05/14 07:28:15;;;;;;;7.85;1.40;;;;;;;21.36;34.12;102121.03;16143525;19;130803;-48
2022/05/14 07:33:37;;;;;;;5.00;1.33;;;;;;;21.44;33.76;102114.28;16140983;19;130889;-47
2022/05/14 07:39:03;;;;;;;4.43;1.35;;;;;;;21.50;33.80;102121.72;16138673;19;129147;-44
2022/05/14 07:44:29;;;;;;;9.65;1.40;;;;;;;21.54;33.85;102115.69;16141197;19;129753;-51
2022/05/14 07:49:51;;;;;;;7.13;1.73;;;;;;;21.57;33.84;102115.19;16144782;19;130949;-50
2022/05/14 07:55:13;;;;;;;4.88;1.40;;;;;;;21.57;33.64;102118.84;16139032;19;130551;-51
2022/05/14 08:00:36;;;;;;;7.57;1.55;;;;;;;21.62;33.89;102126.47;16147100;19;129519;-49
2022/05/14 08:05:58;;;;;;;7.53;1.40;;;;;;;21.62;33.95;102126.47;16143393;19;131015;-50
2022/05/14 08:11:21;;;;;;;8.82;1.42;;;;;;;21.63;34.02;102129.00;16140972;19;130167;-49
2022/05/14 08:16:42;;;;;;;8.13;1.60;;;;;;;21.64;34.00;102124.31;16135999;19;129536;-49
2022/05/14 08:27:46;;;;;;;6.75;1.52;;;;;;;21.68;33.85;102114.38;16144776;19;130540;-51
2022/05/14 08:33:08;;;;;;;9.43;1.50;;;;;;;21.69;34.18;102120.81;16137995;19;129969;-51
2022/05/14 08:38:29;;;;;;;4.22;1.25;;;;;;;21.70;34.17;102115.00;16139113;19;130320;-51
2022/05/14 08:43:58;;;;;;;7.15;1.65;;;;;;;21.71;33.93;102121.44;16136448;19;130082;-43
2022/05/14 08:49:29;;;;;;;7.05;1.88;;;;;;;21.73;34.06;102117.31;16137227;19;130198;-44
2022/05/14 08:54:57;;;;;;;8.82;2.00;;;;;;;21.73;34.04;102116.44;16132369;19;130074;-43
2022/05/14 09:00:19;;;;;;;7.50;2.08;;;;;;;21.76;34.27;102104.81;16138087;19;130392;-45
2022/05/14 09:05:43;;;;;;;7.75;1.67;;;;;;;21.77;34.35;102106.53;16137865;19;131634;-48
2022/05/14 09:11:11;;;;;;;7.18;1.58;;;;;;;21.77;34.31;102101.81;16134731;19;129753;-44
2022/05/14 09:16:36;;;;;;;8.68;1.55;;;;;;;21.78;34.58;102109.09;16134964;19;131998;-48
2022/05/14 09:21:58;;;;;;;7.45;1.42;;;;;;;21.79;34.08;102105.19;16136399;19;130202;-44
2022/05/14 09:27:41;;;;;;;7.53;1.55;;;;;;;21.82;34.21;102104.72;16136037;19;131302;-47
2022/05/14 09:33:04;;;;;;;6.75;1.80;;;;;;;21.81;34.53;102103.03;16132657;19;129910;-43
2022/05/14 09:38:29;;;;;;;6.50;1.20;;;;;;;21.83;34.48;102091.66;16133913;19;130057;-47
2022/05/14 09:43:54;;;;;;;7.03;1.47;;;;;;;21.82;34.60;102104.72;16137271;19;130860;-44
2022/05/14 09:49:21;;;;;;;5.70;1.45;;;;;;;21.82;34.21;102096.38;16143360;19;129003;-48
2022/05/14 09:54:46;;;;;;;5.22;1.23;;;;;;;21.83;34.11;102102.81;16136725;19;129127;-43
2022/05/14 10:00:22;;;;;;;4.30;1.20;;;;;;;21.81;34.26;102099.41;16139780;19;130525;-45
2022/05/14 10:06:15;;;;;;;6.20;1.63;;;;;;;21.81;34.14;102088.25;16142178;19;129570;-45
2022/05/14 10:11:49;;;;;;;4.30;1.13;;;;;;;21.81;34.26;102103.03;16128975;19;129433;-42
2022/05/14 10:17:49;;;;;;;5.10;1.35;;;;;;;21.81;34.18;102103.03;16123293;19;129404;-44
2022/05/14 10:29:41;;;;;;;6.30;1.60;;;;;;;21.82;34.38;102099.16;16136654;19;129565;-44
2022/05/14 10:35:12;;;;;;;8.05;1.90;;;;;;;21.83;34.48;102092.50;16134194;19;131680;-44
2022/05/14 10:40:53;;;;;;;8.48;1.52;;;;;;;21.87;34.39;102094.81;16136002;19;129685;-47
2022/05/14 10:46:20;;;;;;;8.27;1.98;;;;;;;21.86;34.24;102088.38;16138993;19;129691;-42
2022/05/14 10:51:48;;;;;;;7.90;2.00;;;;;;;21.88;34.37;102096.50;16135012;19;129148;-48
2022/05/14 10:57:15;;;;;;;9.25;1.92;;;;;;;21.88;34.10;102091.78;16137135;19;128870;-48
2022/05/14 11:02:53;;;;;;;7.32;1.80;;;;;;;21.90;34.45;102086.81;16133496;19;129256;-45
2022/05/14 11:08:45;;;;;;;9.02;2.05;;;;;;;21.89;34.30;102087.06;16136122;19;129524;-43
2022/05/14 11:14:08;;;;;;;8.10;2.13;;;;;;;21.88;34.25;102075.06;16133982;19;129558;-48
2022/05/14 11:19:32;;;;;;;193.85;24.52;;;;;;;21.91;34.00;102090.47;16131134;19;129084;-42
2022/05/14 11:24:54;;;;;;;135.10;18.30;;;;;;;21.91;34.23;102074.56;16136499;19;129549;-43
2022/05/14 11:30:30;;;;;;;103.70;15.38;;;;;;;21.93;33.95;102071.53;16133424;19;129108;-43
2022/05/14 11:36:03;;;;;;;79.68;13.10;;;;;;;21.88;34.23;102074.22;16129668;19;129048;-47
2022/05/14 11:41:35;;;;;;;83.93;12.75;;;;;;;21.87;34.43;102078.09;16134469;19;131059;-45
2022/05/14 11:46:58;;;;;;;54.90;8.52;;;;;;;21.89;34.50;102075.91;16134441;19;129450;-44
2022/05/14 11:52:22;;;;;;;32.55;6.78;;;;;;;21.90;34.24;102084.03;16133791;19;129337;-46
2022/05/14 11:57:46;;;;;;;36.88;6.30;;;;;;;21.91;34.02;102079.31;16147142;19;129660;-44
2022/05/14 12:03:16;;;;;;;31.17;5.68;;;;;;;21.89;34.05;102070.34;16147967;19;128906;-43
2022/05/14 12:09:04;;;;;;;22.52;4.00;;;;;;;21.88;33.94;102063.91;16149347;19;129291;-48
2022/05/14 12:14:33;;;;;;;22.88;5.18;;;;;;;21.89;33.98;102068.41;16141598;19;130490;-45
2022/05/14 12:19:56;;;;;;;22.83;4.97;;;;;;;21.87;34.23;102050.22;16143841;19;129209;-43
2022/05/14 12:25:18;;;;;;;21.75;4.22;;;;;;;21.89;33.92;102062.00;16146253;19;129431;-48
2022/05/14 12:36:20;;;;;;;15.48;3.53;;;;;;;21.87;34.27;102047.44;16142966;19;129030;-45
2022/05/14 12:41:45;;;;;;;14.93;3.55;;;;;;;21.88;34.28;102047.19;16147284;19;129419;-43
2022/05/14 12:47:08;;;;;;;15.03;3.63;;;;;;;21.88;34.26;102038.00;16146212;19;129197;-45
2022/05/14 12:52:33;;;;;;;12.18;2.67;;;;;;;21.88;34.27;102029.66;16142851;19;128857;-43
2022/05/14 12:57:56;;;;;;;8.77;2.47;;;;;;;21.88;34.53;102035.22;16145537;19;130436;-43
2022/05/14 13:03:34;;;;;;;11.65;2.83;;;;;;;21.91;34.01;102034.75;16142037;19;129466;-43
2022/05/14 13:08:59;;;;;;;11.98;2.33;;;;;;;21.87;34.04;102028.78;16145367;19;129181;-43
2022/05/14 13:14:25;;;;;;;11.00;2.27;;;;;;;21.89;34.42;102018.25;16140862;19;130137;-44
2022/05/14 13:19:49;;;;;;;10.65;2.05;;;;;;;21.91;34.39;102020.81;16145118;19;128994;-44
2022/05/14 13:25:31;;;;;;;12.02;2.40;;;;;;;21.93;33.96;102013.91;16143189;19;129560;-44
2022/05/14 13:30:53;;;;;;;11.27;2.40;;;;;;;21.92;34.25;102014.13;16139212;19;129077;-46
2022/05/14 13:41:56;;;;;;;7.55;1.88;;;;;;;21.91;34.30;102016.06;16141145;19;128888;-43
2022/05/14 13:47:22;;;;;;;10.43;1.80;;;;;;;21.91;33.84;102007.72;16140295;19;128959;-46
2022/05/14 13:52:49;;;;;;;;;;;;;;;21.88;33.97;102005.41;16139360;19;130423;-46
2022/05/14 13:58:16;;;;;;;6.90;1.80;;;;;;;21.92;33.82;101998.28;16140363;19;129056;-45
2022/05/14 14:03:51;;;;;;;5.28;1.58;;;;;;;21.92;33.95;101998.28;16142523;19;129413;-46
2022/05/14 14:09:12;;;;;;;10.15;2.15;;;;;;;21.91;33.89;101990.16;16140081;19;129402;-43
2022/05/14 14:14:35;;;;;;;5.95;1.42;;;;;;;21.92;33.69;101994.63;16136226;19;129490;-47
2022/05/14 14:19:57;;;;;;;6.72;1.80;;;;;;;21.91;33.88;101977.06;16140188;19;128864;-45
2022/05/14 14:25:19;;;;;;;6.85;1.58;;;;;;;21.93;33.72;101985.16;16140154;19;129657;-42
2022/05/14 14:30:42;;;;;;;6.40;1.42;;;;;;;21.93;33.68;101960.97;16137151;19;129438;-45
2022/05/14 14:36:06;;;;;;;7.60;1.85;;;;;;;21.91;33.84;101962.31;16134380;19;130046;-43
2022/05/14 14:41:28;;;;;;;9.10;1.60;;;;;;;21.88;33.63;101974.75;16138375;19;129299;-45
2022/05/14 14:46:51;;;;;;;7.63;1.65;;;;;;;21.85;33.46;101960.47;16134761;19;129370;-45
2022/05/14 14:52:12;;;;;;;5.97;1.70;;;;;;;21.82;33.59;101964.59;16137240;19;129133;-45
2022/05/14 14:57:34;;;;;;;6.97;1.50;;;;;;;21.81;34.05;101952.59;16138333;19;129480;-48
2022/05/14 15:03:09;;;;;;;4.18;1.35;;;;;;;21.81;34.11;101938.66;16137805;19;129462;-44
2022/05/14 15:08:37;;;;;;;5.50;1.20;;;;;;;21.81;33.78;101935.88;16133657;19;129397;-47
2022/05/14 15:14:05;;;;;;;4.90;1.20;;;;;;;21.80;33.64;101934.19;16135342;19;129411;-45
2022/05/14 15:19:27;;;;;;;4.80;1.30;;;;;;;21.79;34.06;101935.28;16131244;19;129416;-43
2022/05/14 15:24:50;;;;;;;4.35;1.40;;;;;;;21.79;33.91;101923.31;16138533;19;129434;-48
2022/05/14 15:30:13;;;;;;;5.22;1.20;;;;;;;21.78;33.73;101930.81;16145838;19;129010;-43
2022/05/14 15:35:35;;;;;;;5.07;1.30;;;;;;;21.77;34.03;101923.56;16148257;19;128946;-46
2022/05/14 15:40:58;;;;;;;6.85;1.55;;;;;;;21.77;34.17;101929.13;16154096;19;128981;-45
2022/05/14 15:46:25;;;;;;;5.90;1.25;;;;;;;21.78;34.10;101919.69;16152245;19;129597;-46
2022/05/14 15:51:47;;;;;;;4.38;1.00;;;;;;;21.77;33.81;101920.78;16151645;19;128892;-46
2022/05/14 15:57:10;;;;;;;5.25;1.48;;;;;;;21.76;34.34;101921.88;16145706;19;129322;-44
2022/05/14 16:02:31;;;;;;;3.50;0.90;;;;;;;21.77;33.85;101919.91;16148453;19;129904;-47
2022/05/14 16:07:54;;;;;;;2.65;0.73;;;;;;;21.76;33.96;101907.06;16148408;19;129363;-46
2022/05/14 16:18:56;;;;;;;4.15;1.08;;;;;;;21.77;33.89;101906.84;16145731;19;128980;-47
2022/05/14 16:24:18;;;;;;;3.08;0.90;;;;;;;21.78;34.20;101905.75;16148886;19;129672;-46
2022/05/14 16:35:21;;;;;;;2.35;1.00;;;;;;;21.81;34.09;101902.47;16146179;19;129444;-45
2022/05/14 16:40:42;;;;;;;2.85;0.95;;;;;;;21.82;33.94;101893.00;16145636;19;129096;-43
2022/05/14 16:46:05;;;;;;;3.13;0.90;;;;;;;21.84;34.07;101901.16;16147149;19;129230;-46
2022/05/14 16:51:30;;;;;;;2.30;0.80;;;;;;;21.85;33.96;101890.84;16147485;19;128840;-44
2022/05/14 16:56:52;;;;;;;3.20;0.82;;;;;;;21.87;34.26;101899.81;16143709;19;130915;-44
2022/05/14 17:02:16;;;;;;;3.05;0.90;;;;;;;21.87;34.23;101894.22;16144818;19;128908;-47
2022/05/14 17:07:39;;;;;;;3.28;0.90;;;;;;;21.87;34.10;101899.81;16147212;19;129526;-45
2022/05/14 17:13:01;;;;;;;3.25;1.05;;;;;;;21.88;33.85;101904.28;16145219;19;130899;-44
2022/05/14 17:18:23;;;;;;;2.40;0.80;;;;;;;21.90;34.04;101902.09;16140679;19;129227;-46
2022/05/14 17:23:45;;;;;;;1.45;0.63;;;;;;;21.88;34.26;101905.13;16139614;19;129387;-44
2022/05/14 17:29:09;;;;;;;1.08;0.90;;;;;;;21.87;34.13;101908.16;16142010;19;130360;-49
2022/05/14 17:34:31;;;;;;;3.27;1.13;;;;;;;21.87;34.04;101899.81;16136780;19;129700;-43
2022/05/14 17:39:53;;;;;;;2.75;0.90;;;;;;;21.83;34.31;101899.44;16135658;19;130433;-44
2022/05/14 17:45:16;;;;;;;4.80;1.30;;;;;;;21.81;34.24;101902.47;16135479;19;131347;-47
2022/05/14 17:50:38;;;;;;;4.93;1.38;;;;;;;21.79;33.99;101904.63;16132579;19;129600;-46
2022/05/14 17:56:01;;;;;;;4.38;1.20;;;;;;;21.77;34.09;101895.72;16130454;19;131116;-45
2022/05/14 18:01:29;;;;;;;4.15;1.20;;;;;;;21.76;33.93;101893.16;16129181;19;130534;-43
2022/05/14 18:06:51;;;;;;;3.85;1.20;;;;;;;21.75;33.96;101897.03;16128267;19;130455;-47
2022/05/14 18:12:13;;;;;;;4.53;1.30;;;;;;;21.73;34.37;101897.28;16133144;19;129248;-43
2022/05/14 18:17:34;;;;;;;7.43;1.33;;;;;;;21.74;34.52;101900.91;16119950;19;129851;-44
2022/05/14 18:22:57;;;;;;;7.68;1.23;;;;;;;21.75;34.39;101897.03;16133447;19;130410;-42
2022/05/14 18:28:23;;;;;;;;;;;;;;;21.71;34.29;101896.66;16125526;19;130544;-47
2022/05/14 18:33:47;;;;;;;14.10;1.92;;;;;;;21.71;34.26;101902.25;16127730;19;130224;-43
2022/05/14 18:39:09;;;;;;;4.03;1.60;;;;;;;21.69;34.11;101896.06;16130630;19;130615;-46
2022/05/14 18:44:33;;;;;;;13.32;1.90;;;;;;;21.68;34.37;101899.94;16126440;19;130507;-42
2022/05/14 18:49:55;;;;;;;7.50;1.60;;;;;;;21.66;34.24;101899.34;16131416;19;130414;-42
2022/05/14 18:55:17;;;;;;;12.68;2.03;;;;;;;21.66;34.07;101899.34;16126893;19;129881;-46
2022/05/14 19:00:39;;;;;;;9.10;1.60;;;;;;;21.69;34.26;101892.44;16119372;19;129619;-43
2022/05/14 19:11:43;;;;;;;10.88;2.33;;;;;;;21.66;34.80;101899.34;16143236;19;129554;-44
2022/05/14 19:17:09;;;;;;;10.55;1.60;;;;;;;21.65;34.67;101898.50;16137776;19;129712;-48
2022/05/14 19:22:31;;;;;;;9.75;2.10;;;;;;;21.64;34.70;101907.94;16135094;19;129908;-46
2022/05/14 19:27:52;;;;;;;12.38;2.28;;;;;;;21.65;35.02;101908.78;16133293;19;130736;-42
2022/05/14 19:33:14;;;;;;;23.35;2.55;;;;;;;21.69;35.13;101917.50;16132749;19;130294;-47
2022/05/14 19:38:39;;;;;;;10.18;1.52;;;;;;;21.69;35.02;101911.94;16147286;19;129598;-44
2022/05/14 19:44:06;;;;;;;12.50;1.77;;;;;;;21.70;35.26;101917.25;16149875;19;130412;-45
2022/05/14 19:49:28;;;;;;;11.93;1.88;;;;;;;21.69;35.74;101926.69;16150189;19;130489;-44
2022/05/14 19:54:50;;;;;;;7.05;1.60;;;;;;;21.67;35.90;101929.72;16144193;19;129240;-45
2022/05/14 20:00:13;;;;;;;13.88;2.47;;;;;;;21.67;35.55;101951.16;16148941;19;129148;-43
2022/05/14 20:05:37;;;;;;;8.65;1.48;;;;;;;21.66;35.99;101949.47;16149809;19;129003;-43
2022/05/14 20:11:00;;;;;;;17.38;1.63;;;;;;;21.64;36.19;101955.28;16147407;19;129409;-45
2022/05/14 20:22:02;;;;;;;10.65;1.60;;;;;;;21.60;35.93;101944.88;16147159;19;128903;-44
2022/05/14 20:27:25;;;;;;;9.23;1.55;;;;;;;21.59;36.25;101954.31;16146868;19;129862;-42
2022/05/14 20:32:46;;;;;;;6.72;1.70;;;;;;;21.58;36.54;101961.81;16146633;19;129335;-44
2022/05/14 20:38:10;;;;;;;4.07;0.93;;;;;;;21.56;36.58;101961.22;16140896;19;129333;-45
2022/05/14 20:43:33;;;;;;;7.53;1.65;;;;;;;21.55;36.52;101958.66;16141023;19;130448;-44
2022/05/14 20:48:55;;;;;;;10.48;1.83;;;;;;;21.54;36.39;101963.38;16138132;19;129420;-47
2022/05/14 20:54:18;;;;;;;7.03;1.30;;;;;;;21.53;36.63;101964.47;16133509;19;129680;-43
2022/05/14 20:59:39;;;;;;;4.95;1.05;;;;;;;21.52;36.73;101965.56;16137660;19;129179;-43
2022/05/14 21:05:02;;;;;;;6.75;1.63;;;;;;;21.51;36.67;101967.50;16143881;19;130581;-46
2022/05/14 21:10:24;;;;;;;6.47;1.30;;;;;;;21.50;36.28;101974.16;16142118;19;129333;-46
2022/05/14 21:15:46;;;;;;;6.10;1.15;;;;;;;21.48;36.78;101970.72;16140985;19;129370;-45
2022/05/14 21:21:08;;;;;;;6.60;1.33;;;;;;;21.48;36.48;101959.59;16141989;19;130365;-47
2022/05/14 21:26:30;;;;;;;6.55;1.08;;;;;;;21.48;36.85;101965.16;16142790;19;130018;-48
2022/05/14 21:31:52;;;;;;;5.88;1.33;;;;;;;21.47;36.84;101966.25;16143980;19;129481;-42
2022/05/14 21:42:54;;;;;;;2.60;0.75;;;;;;;21.44;36.63;101963.94;16138802;19;129285;-44
2022/05/14 21:48:18;;;;;;;19.02;2.00;;;;;;;21.45;37.44;101968.44;16139304;19;130092;-47
2022/05/14 21:53:40;;;;;;;17.85;2.28;;;;;;;21.46;36.99;101967.34;16133383;19;129551;-45
2022/05/14 21:59:03;;;;;;;22.77;2.38;;;;;;;21.46;36.98;101967.34;16131952;19;129164;-44
2022/05/14 22:04:25;;;;;;;18.33;2.58;;;;;;;21.46;36.75;101964.56;16139573;19;129442;-43
2022/05/14 22:09:47;;;;;;;8.13;1.58;;;;;;;21.45;36.80;101970.38;16141180;19;130096;-45
2022/05/14 22:15:10;;;;;;;7.78;1.60;;;;;;;21.45;36.96;101968.44;16135886;19;130583;-43
2022/05/14 22:20:32;;;;;;;7.30;1.98;;;;;;;21.45;36.79;101973.16;16117451;19;130170;-47
2022/05/14 22:25:54;;;;;;;14.25;2.00;;;;;;;21.43;36.69;101966.97;16119373;19;131084;-45
2022/05/14 22:31:16;;;;;;;6.60;1.75;;;;;;;21.42;36.38;101966.13;16124260;19;130221;-45
2022/05/14 22:36:38;;;;;;;9.32;2.10;;;;;;;21.42;36.71;101959.72;16120035;19;129547;-46
2022/05/14 22:41:59;;;;;;;8.80;1.65;;;;;;;21.41;36.54;101952.44;16117887;19;129336;-42
2022/05/14 22:47:21;;;;;;;7.22;1.77;;;;;;;21.40;36.73;101948.81;16121524;19;129610;-43
2022/05/14 22:52:43;;;;;;;10.35;2.03;;;;;;;21.40;36.18;101948.81;16120032;19;129584;-42
2022/05/14 22:58:05;;;;;;;7.13;1.45;;;;;;;21.40;36.59;101945.19;16116573;19;129582;-42
2022/05/14 23:03:28;;;;;;;9.48;2.17;;;;;;;21.39;36.44;101938.78;16134137;19;129788;-47
2022/05/14 23:08:50;;;;;;;3.47;1.23;;;;;;;21.37;36.13;101939.00;16135687;19;129804;-42
2022/05/14 23:14:12;;;;;;;9.77;2.33;;;;;;;21.37;36.37;101939.00;16135565;19;129077;-44
2022/05/14 23:19:33;;;;;;;8.82;2.00;;;;;;;21.35;36.69;101932.00;16120956;19;129856;-45
2022/05/14 23:24:55;;;;;;;6.60;1.95;;;;;;;21.33;36.66;101923.88;16128222;19;130717;-45
2022/05/14 23:30:21;;;;;;;4.43;1.58;;;;;;;21.31;36.43;101939.13;16127685;19;131021;-46
2022/05/14 23:36:24;;;;;;;;;;;;;;;21.27;36.25;101929.56;16126503;19;129016;-42
2022/05/14 23:41:24;;;;;;;6.95;1.73;;;;;;;21.28;36.53;101922.91;16126275;19;130755;-43
2022/05/14 23:46:46;;;;;;;8.60;2.00;;;;;;;21.26;36.60;101916.75;16127656;19;130825;-47
2022/05/14 23:52:08;;;;;;;8.60;2.08;;;;;;;21.23;36.11;101915.28;16144052;19;130734;-45
2022/05/14 23:57:33;;;;;;;10.43;2.40;;;;;;;21.20;36.61;101908.25;16137123;19;130538;-45
